createdAt,value
2019-03-23T00:01:53.644Z,42.43
2019-03-23T00:04:25.489Z,48.00
2019-03-23T00:06:56.541Z,50.57
2019-03-23T00:09:27.484Z,51.03
2019-03-23T00:11:58.390Z,48.03
2019-03-23T00:14:31.830Z,47.83
2019-03-23T00:17:02.729Z,39.33
2019-03-23T00:19:34.415Z,45.70
2019-03-23T00:22:06.021Z,40.53
2019-03-23T00:24:37.762Z,37.10
2019-03-23T00:27:08.691Z,43.13
2019-03-23T00:29:39.620Z,37.17
2019-03-23T00:32:10.539Z,34.47
2019-03-23T00:34:41.470Z,35.67
2019-03-23T00:37:12.370Z,35.97
2019-03-23T00:39:44.122Z,39.60
2019-03-23T00:42:16.136Z,43.47
2019-03-23T00:44:47.025Z,49.30
2019-03-23T00:47:17.934Z,50.30
2019-03-23T00:49:48.919Z,48.27
2019-03-23T00:52:19.819Z,51.63
2019-03-23T00:54:50.765Z,43.40
2019-03-23T00:57:23.345Z,50.00
2019-03-23T00:59:54.194Z,42.83
2019-03-23T01:02:25.098Z,43.83
2019-03-23T01:04:56.025Z,40.90
2019-03-23T01:07:26.927Z,39.27
2019-03-23T01:09:58.728Z,34.67
2019-03-23T01:12:29.630Z,43.53
2019-03-23T01:15:01.723Z,41.03
2019-03-23T01:17:32.632Z,41.30
2019-03-23T01:20:04.562Z,47.83
2019-03-23T01:22:36.743Z,46.93
2019-03-23T01:25:09.150Z,47.53
2019-03-23T01:27:40.052Z,43.63
2019-03-23T01:30:14.738Z,49.47
2019-03-23T01:32:45.641Z,57.50
2019-03-23T01:35:16.564Z,56.27
2019-03-23T01:37:47.470Z,60.37
2019-03-23T01:40:18.416Z,52.67
2019-03-23T01:42:49.318Z,56.00
2019-03-23T01:45:20.236Z,62.07
2019-03-23T01:47:51.134Z,54.93
2019-03-23T01:50:22.063Z,58.23
2019-03-23T01:52:52.953Z,54.53
2019-03-23T01:55:24.741Z,54.83
2019-03-23T01:57:55.626Z,60.43
2019-03-23T02:00:26.562Z,68.13
2019-03-23T02:02:57.471Z,58.77
2019-03-23T02:05:28.394Z,58.83
2019-03-23T02:07:59.296Z,53.00
2019-03-23T02:10:31.913Z,53.00
2019-03-23T02:13:02.850Z,57.57
2019-03-23T02:15:33.767Z,53.97
2019-03-23T02:18:04.677Z,60.93
2019-03-23T02:20:35.602Z,61.57
2019-03-23T02:23:25.562Z,55.83
2019-03-23T02:25:58.608Z,58.67
2019-03-23T02:28:29.656Z,47.77
2019-03-23T02:31:00.716Z,45.87
2019-03-23T02:33:31.671Z,46.50
2019-03-23T02:36:02.671Z,48.50
2019-03-23T02:38:33.625Z,41.37
2019-03-23T02:41:05.443Z,41.40
2019-03-23T02:43:36.381Z,42.07
2019-03-23T02:46:07.383Z,37.87
2019-03-23T02:48:38.351Z,39.00
2019-03-23T02:51:09.346Z,40.13
2019-03-23T02:53:40.328Z,40.17
2019-03-23T02:56:11.362Z,34.03
2019-03-23T02:58:43.106Z,45.03
2019-03-23T03:01:14.096Z,41.10
2019-03-23T03:03:45.025Z,41.90
2019-03-23T03:06:15.991Z,29.53
2019-03-23T03:08:46.917Z,35.00
2019-03-23T03:11:18.838Z,35.23
2019-03-23T03:13:49.823Z,37.83
2019-03-23T03:16:20.742Z,32.90
2019-03-23T03:18:51.642Z,35.90
2019-03-23T03:21:23.759Z,37.10
2019-03-23T03:23:54.664Z,30.30
2019-03-23T03:26:25.649Z,33.27
2019-03-23T03:28:56.624Z,34.57
2019-03-23T03:31:27.579Z,30.93
2019-03-23T03:33:58.466Z,30.03
2019-03-23T03:36:30.189Z,32.90
2019-03-23T03:39:04.074Z,32.47
2019-03-23T03:41:36.094Z,30.70
2019-03-23T03:44:07.069Z,32.90
2019-03-23T03:46:37.995Z,35.10
2019-03-23T03:49:12.613Z,36.93
2019-03-23T03:51:42.654Z,30.40
2019-03-23T03:54:13.569Z,31.10
2019-03-23T03:56:44.877Z,32.00
2019-03-23T03:59:15.920Z,32.77
2019-03-23T04:01:47.744Z,34.60
2019-03-23T04:04:18.647Z,28.93
2019-03-23T04:06:49.580Z,32.30
2019-03-23T04:09:22.822Z,28.17
2019-03-23T04:11:53.842Z,30.77
2019-03-23T04:14:24.754Z,28.87
2019-03-23T04:16:55.750Z,42.07
2019-03-23T04:19:26.659Z,28.43
2019-03-23T04:22:00.808Z,28.57
2019-03-23T04:24:31.712Z,29.83
2019-03-23T04:27:05.222Z,23.60
2019-03-23T04:29:37.493Z,26.27
2019-03-23T04:32:08.570Z,27.30
2019-03-23T04:34:39.471Z,28.43
2019-03-23T04:37:10.410Z,29.23
2019-03-23T04:39:41.397Z,28.93
2019-03-23T04:42:12.332Z,28.47
2019-03-23T04:44:43.232Z,30.03
2019-03-23T04:47:15.308Z,28.17
2019-03-23T04:49:46.163Z,31.93
2019-03-23T04:52:17.087Z,33.17
2019-03-23T04:54:50.522Z,32.17
2019-03-23T04:57:20.637Z,31.93
2019-03-23T04:59:51.527Z,33.93
2019-03-23T05:02:22.463Z,33.37
2019-03-23T05:04:53.359Z,31.90
2019-03-23T05:07:24.288Z,35.43
2019-03-23T05:09:55.200Z,33.30
2019-03-23T05:12:26.147Z,33.47
2019-03-23T05:14:57.058Z,30.23
2019-03-23T05:17:28.004Z,33.90
2019-03-23T05:19:58.902Z,30.43
2019-03-23T05:22:29.831Z,35.87
2019-03-23T05:25:00.739Z,39.57
2019-03-23T05:27:35.127Z,38.80
2019-03-23T05:30:09.843Z,41.47
2019-03-23T05:32:40.769Z,39.47
2019-03-23T05:35:11.675Z,34.90
2019-03-23T05:37:43.794Z,37.77
2019-03-23T05:40:14.803Z,33.17
2019-03-23T05:42:46.609Z,29.43
2019-03-23T05:45:17.517Z,36.97
2019-03-23T05:47:48.438Z,39.80
2019-03-23T05:50:19.338Z,37.23
2019-03-23T05:52:50.279Z,30.77
2019-03-23T05:55:21.182Z,34.50
2019-03-23T05:57:53.152Z,35.53
2019-03-23T06:00:25.672Z,32.90
2019-03-23T06:02:56.605Z,36.93
2019-03-23T06:05:27.511Z,34.37
2019-03-23T06:07:58.376Z,37.37
2019-03-23T06:10:29.199Z,37.73
2019-03-23T06:13:00.144Z,39.73
2019-03-23T06:15:31.234Z,32.40
2019-03-23T06:18:02.238Z,36.53
2019-03-23T06:20:33.143Z,31.67
2019-03-23T06:23:04.083Z,33.60
2019-03-23T06:25:34.982Z,37.50
2019-03-23T06:28:06.030Z,31.93
2019-03-23T06:30:37.030Z,29.07
2019-03-23T06:33:07.966Z,35.53
2019-03-23T06:35:38.876Z,34.70
2019-03-23T06:38:09.895Z,36.10
2019-03-23T06:40:40.793Z,34.50
2019-03-23T06:43:11.754Z,34.37
2019-03-23T06:45:42.659Z,34.73
2019-03-23T06:48:13.600Z,32.43
2019-03-23T06:50:44.517Z,34.63
2019-03-23T06:53:15.471Z,40.30
2019-03-23T06:55:46.440Z,40.87
2019-03-23T06:58:18.255Z,40.67
2019-03-23T07:00:55.363Z,41.93
2019-03-23T07:03:26.294Z,34.80
2019-03-23T07:05:57.215Z,35.40
2019-03-23T07:08:32.096Z,36.80
2019-03-23T07:11:00.759Z,36.23
2019-03-23T07:13:32.580Z,34.47
2019-03-23T07:16:03.477Z,30.27
2019-03-23T07:18:34.415Z,31.07
2019-03-23T07:21:05.324Z,30.95
2019-03-23T07:23:36.258Z,27.73
2019-03-23T07:26:07.168Z,30.57
2019-03-23T07:28:39.770Z,31.90
2019-03-23T07:31:10.682Z,27.50
2019-03-23T07:33:45.767Z,29.05
2019-03-23T07:36:16.701Z,28.80
2019-03-23T07:38:49.535Z,28.10
2019-03-23T07:41:20.601Z,29.70
2019-03-23T07:43:51.559Z,29.07
2019-03-23T07:46:22.470Z,30.32
2019-03-23T07:48:53.419Z,29.02
2019-03-23T07:51:24.329Z,29.77
2019-03-23T07:53:55.279Z,28.83
2019-03-23T07:56:26.195Z,25.68
2019-03-23T07:58:57.961Z,28.55
2019-03-23T08:01:29.801Z,28.90
2019-03-23T08:04:00.738Z,26.95
2019-03-23T08:06:31.659Z,27.15
2019-03-23T08:09:02.592Z,27.85
2019-03-23T08:11:33.513Z,24.60
2019-03-23T08:14:04.453Z,25.77
2019-03-23T08:16:35.370Z,26.20
2019-03-23T08:19:06.309Z,24.65
2019-03-23T08:21:37.230Z,27.77
2019-03-23T08:24:08.167Z,26.62
2019-03-23T08:26:39.113Z,29.65
2019-03-23T08:29:10.919Z,28.90
2019-03-23T08:31:41.830Z,27.93
2019-03-23T08:34:12.775Z,26.82
2019-03-23T08:36:43.687Z,25.40
2019-03-23T08:39:14.639Z,25.77
2019-03-23T08:41:45.557Z,25.92
2019-03-23T08:44:17.383Z,24.98
2019-03-23T08:46:48.302Z,25.88
2019-03-23T08:49:19.263Z,28.30
2019-03-23T08:51:50.318Z,26.95
2019-03-23T08:54:21.259Z,26.97
2019-03-23T08:56:52.176Z,32.23
2019-03-23T08:59:23.163Z,29.92
2019-03-23T09:01:55.637Z,29.23
2019-03-23T09:04:26.584Z,31.17
2019-03-23T09:06:58.235Z,27.90
2019-03-23T09:09:29.181Z,28.67
2019-03-23T09:12:00.085Z,28.27
2019-03-23T09:14:31.913Z,25.85
2019-03-23T09:17:02.897Z,25.37
2019-03-23T09:19:33.834Z,26.27
2019-03-23T09:22:04.754Z,28.23
2019-03-23T09:24:35.692Z,23.00
2019-03-23T09:27:06.609Z,26.05
2019-03-23T09:29:37.577Z,26.55
2019-03-23T09:32:08.498Z,24.52
2019-03-23T09:34:39.478Z,29.60
2019-03-23T09:37:10.359Z,26.90
2019-03-23T09:39:41.294Z,26.02
2019-03-23T09:42:12.207Z,29.57
2019-03-23T09:44:43.959Z,27.02
2019-03-23T09:47:15.139Z,26.82
2019-03-23T09:49:46.148Z,25.82
2019-03-23T09:52:17.240Z,26.82
2019-03-23T09:54:48.182Z,30.40
2019-03-23T09:57:19.231Z,33.05
2019-03-23T09:59:50.239Z,29.67
2019-03-23T10:02:22.029Z,29.70
2019-03-23T10:04:53.198Z,27.32
2019-03-23T10:07:24.101Z,27.37
2019-03-23T10:09:55.043Z,27.82
2019-03-23T10:12:25.957Z,25.15
2019-03-23T10:14:57.725Z,28.32
2019-03-23T10:17:28.634Z,30.50
2019-03-23T10:19:59.572Z,29.32
2019-03-23T10:22:30.747Z,30.30
2019-03-23T10:25:01.604Z,29.45
2019-03-23T10:27:32.520Z,29.12
2019-03-23T10:30:05.208Z,30.82
2019-03-23T10:32:36.191Z,28.73
2019-03-23T10:35:09.004Z,29.12
2019-03-23T10:37:39.922Z,30.15
2019-03-23T10:40:19.576Z,32.25
2019-03-23T10:42:46.281Z,31.07
2019-03-23T10:45:18.207Z,36.35
2019-03-23T10:47:49.267Z,36.70
2019-03-23T10:50:20.230Z,36.40
2019-03-23T10:52:51.139Z,35.30
2019-03-23T10:55:22.085Z,36.17
2019-03-23T10:57:53.058Z,37.45
2019-03-23T11:00:24.938Z,36.20
2019-03-23T11:02:56.646Z,35.23
2019-03-23T11:05:27.585Z,35.28
2019-03-23T11:07:58.495Z,38.13
2019-03-23T11:10:29.545Z,34.90
2019-03-23T11:13:00.454Z,34.80
2019-03-23T11:15:32.339Z,39.73
2019-03-23T11:18:03.379Z,40.67
2019-03-23T11:20:35.302Z,35.23
2019-03-23T11:23:06.203Z,35.83
2019-03-23T11:25:37.149Z,37.40
2019-03-23T11:28:08.061Z,38.83
2019-03-23T11:30:39.997Z,35.15
2019-03-23T11:33:10.986Z,31.02
2019-03-23T11:35:41.909Z,30.75
2019-03-23T11:38:12.830Z,37.58
2019-03-23T11:40:52.158Z,34.70
2019-03-23T11:43:16.367Z,36.98
2019-03-23T11:45:48.222Z,34.27
2019-03-23T11:48:19.127Z,34.80
2019-03-23T11:50:50.064Z,37.45
2019-03-23T11:53:20.968Z,34.35
2019-03-23T11:55:52.015Z,36.50
2019-03-23T11:58:23.021Z,32.70
2019-03-23T12:00:53.973Z,34.27
2019-03-23T12:03:29.017Z,33.13
2019-03-23T12:06:00.050Z,32.67
2019-03-23T12:08:30.947Z,30.43
2019-03-23T12:11:03.042Z,32.83
2019-03-23T12:13:34.377Z,29.98
2019-03-23T12:16:06.145Z,39.95
2019-03-23T12:18:37.149Z,34.53
2019-03-23T12:21:08.095Z,35.85
2019-03-23T12:23:39.009Z,31.55
2019-03-23T12:26:10.000Z,29.45
2019-03-23T12:28:40.903Z,30.85
2019-03-23T12:31:12.716Z,34.98
2019-03-23T12:33:46.915Z,37.63
2019-03-23T12:36:17.932Z,33.98
2019-03-23T12:38:48.843Z,34.20
2019-03-23T12:41:23.233Z,35.92
2019-03-23T12:43:52.380Z,35.95
2019-03-23T12:46:23.383Z,40.03
2019-03-23T12:48:54.288Z,34.20
2019-03-23T12:51:25.232Z,32.70
2019-03-23T12:53:56.270Z,37.15
2019-03-23T12:56:27.206Z,40.28
2019-03-23T12:58:58.128Z,35.58
2019-03-23T13:01:30.028Z,40.90
2019-03-23T13:04:01.709Z,42.38
2019-03-23T13:06:34.974Z,42.75
2019-03-23T13:09:06.984Z,42.50
2019-03-23T13:11:37.926Z,41.40
2019-03-23T13:14:08.938Z,42.40
2019-03-23T13:16:40.869Z,46.28
2019-03-23T13:19:11.776Z,48.58
2019-03-23T13:21:42.739Z,47.43
2019-03-23T13:24:13.650Z,55.65
2019-03-23T13:26:44.590Z,54.33
2019-03-23T13:29:15.694Z,59.25
2019-03-23T13:31:46.769Z,61.55
2019-03-23T13:34:17.688Z,60.50
2019-03-23T13:36:48.622Z,62.93
2019-03-23T13:39:19.534Z,57.90
2019-03-23T13:41:51.480Z,61.00
2019-03-23T13:44:22.395Z,64.30
2019-03-23T13:46:54.290Z,58.83
2019-03-23T13:49:25.195Z,65.22
2019-03-23T13:51:56.144Z,60.40
2019-03-23T13:54:27.052Z,61.77
2019-03-23T13:56:57.988Z,63.48
2019-03-23T13:59:28.907Z,62.43
2019-03-23T14:02:00.879Z,57.30
2019-03-23T14:04:31.759Z,59.00
2019-03-23T14:07:02.701Z,58.75
2019-03-23T14:09:33.606Z,59.55
2019-03-23T14:12:04.546Z,60.08
2019-03-23T14:14:35.469Z,60.00
2019-03-23T14:17:06.596Z,58.95
2019-03-23T14:19:37.507Z,63.23
2019-03-23T14:22:08.461Z,56.53
2019-03-23T14:24:45.007Z,60.05
2019-03-23T14:27:12.014Z,53.08
2019-03-23T14:29:42.933Z,53.02
2019-03-23T14:32:14.786Z,51.18
2019-03-23T14:34:45.691Z,48.68
2019-03-23T14:37:16.625Z,49.93
2019-03-23T14:39:47.535Z,51.10
2019-03-23T14:42:18.474Z,53.28
2019-03-23T14:44:49.382Z,58.40
2019-03-23T14:47:20.437Z,47.03
2019-03-23T14:49:51.350Z,46.13
2019-03-23T14:52:22.272Z,54.93
2019-03-23T14:54:53.253Z,89.52
2019-03-23T14:57:24.188Z,71.07
2019-03-23T14:59:58.148Z,46.92
2019-03-23T15:02:30.001Z,56.05
2019-03-23T15:05:01.703Z,72.03
2019-03-23T15:07:32.666Z,40.78
2019-03-23T15:10:05.891Z,37.48
2019-03-23T15:12:36.805Z,38.78
2019-03-23T15:15:08.530Z,42.25
2019-03-23T15:17:48.400Z,46.08
2019-03-23T15:20:12.112Z,44.63
2019-03-23T15:22:46.639Z,46.92
2019-03-23T15:25:19.059Z,47.90
2019-03-23T15:27:50.005Z,51.00
2019-03-23T15:30:20.910Z,39.13
2019-03-23T15:32:52.774Z,50.48
2019-03-23T15:35:23.684Z,44.73
2019-03-23T15:37:57.170Z,51.50
2019-03-23T15:40:27.318Z,65.70
2019-03-23T15:42:58.252Z,56.35
2019-03-23T15:45:34.832Z,64.20
2019-03-23T15:48:05.814Z,70.32
2019-03-23T15:50:36.731Z,46.37
2019-03-23T15:53:09.742Z,48.13
2019-03-23T15:55:40.655Z,46.83
2019-03-23T15:58:11.609Z,51.55
2019-03-23T16:00:42.516Z,52.15
2019-03-23T16:03:14.296Z,45.23
2019-03-23T16:05:45.197Z,51.95
2019-03-23T16:08:16.138Z,54.95
2019-03-23T16:10:47.060Z,46.15
2019-03-23T16:13:17.990Z,54.00
2019-03-23T16:15:48.896Z,46.10
2019-03-23T16:18:20.840Z,55.58
2019-03-23T16:20:51.754Z,53.05
2019-03-23T16:23:23.540Z,52.20
2019-03-23T16:25:54.467Z,50.40
2019-03-23T16:28:25.404Z,63.23
2019-03-23T16:30:56.324Z,53.40
2019-03-23T16:33:28.359Z,58.60
2019-03-23T16:35:59.283Z,53.40
2019-03-23T16:38:30.213Z,63.73
2019-03-23T16:41:01.148Z,60.20
2019-03-23T16:43:32.083Z,65.00
2019-03-23T16:46:03.121Z,52.70
2019-03-23T16:48:34.067Z,41.30
2019-03-23T16:51:04.973Z,47.73
2019-03-23T16:53:35.953Z,47.23
2019-03-23T16:56:07.017Z,47.77
2019-03-23T16:58:39.532Z,49.33
2019-03-23T17:01:10.488Z,52.93
2019-03-23T17:03:42.262Z,54.50
2019-03-23T17:06:14.909Z,45.77
2019-03-23T17:08:45.854Z,48.53
2019-03-23T17:11:24.041Z,59.33
2019-03-23T17:13:56.629Z,56.53
2019-03-23T17:16:27.538Z,58.73
2019-03-23T17:18:59.344Z,58.93
2019-03-23T17:21:30.233Z,53.97
2019-03-23T17:24:01.194Z,48.17
2019-03-23T17:26:32.113Z,50.90
2019-03-23T17:29:04.689Z,53.00
2019-03-23T17:31:35.777Z,51.43
2019-03-23T17:34:07.775Z,64.30
2019-03-23T17:36:38.730Z,47.20
2019-03-23T17:39:09.812Z,51.67
2019-03-23T17:41:40.801Z,57.07
2019-03-23T17:44:11.757Z,57.67
2019-03-23T17:46:42.648Z,55.73
2019-03-23T17:49:14.468Z,57.67
2019-03-23T17:51:45.490Z,55.73
2019-03-23T17:54:17.928Z,48.90
2019-03-23T17:56:48.804Z,52.17
2019-03-23T17:59:19.814Z,53.57
2019-03-23T18:01:50.822Z,43.73
2019-03-23T18:04:23.493Z,45.27
2019-03-23T18:06:55.232Z,50.50
2019-03-23T18:09:26.239Z,53.50
2019-03-23T18:11:57.144Z,49.43
2019-03-23T18:14:28.177Z,58.33
2019-03-23T18:16:59.100Z,57.67
2019-03-23T18:19:30.871Z,63.40
2019-03-23T18:22:01.776Z,49.10
2019-03-23T18:24:32.946Z,53.83
2019-03-23T18:27:03.910Z,51.47
2019-03-23T18:29:34.910Z,51.00
2019-03-23T18:32:05.930Z,48.63
2019-03-23T18:34:37.738Z,46.37
2019-03-23T18:37:08.647Z,47.20
2019-03-23T18:39:39.571Z,58.40
2019-03-23T18:42:10.488Z,61.27
2019-03-23T18:44:41.561Z,57.33
2019-03-23T18:47:12.529Z,61.80
2019-03-23T18:49:44.369Z,51.23
2019-03-23T18:52:15.367Z,47.83
2019-03-23T18:54:46.310Z,43.53
2019-03-23T18:57:17.218Z,43.60
2019-03-23T18:59:48.272Z,47.27
2019-03-23T19:02:19.366Z,41.77
2019-03-23T19:04:51.165Z,42.03
2019-03-23T19:07:25.584Z,43.83
2019-03-23T19:09:57.293Z,40.90
2019-03-23T19:12:28.195Z,40.27
2019-03-23T19:14:59.188Z,40.37
2019-03-23T19:17:30.211Z,39.87
2019-03-23T19:20:02.026Z,43.90
2019-03-23T19:22:32.948Z,42.07
2019-03-23T19:25:14.949Z,43.97
2019-03-23T19:27:37.414Z,41.97
2019-03-23T19:30:12.477Z,41.47
2019-03-23T19:32:44.693Z,39.80
2019-03-23T19:35:16.464Z,36.50
2019-03-23T19:37:47.414Z,33.73
2019-03-23T19:40:18.295Z,35.67
2019-03-23T19:42:49.210Z,36.07
2019-03-23T19:45:20.140Z,42.37
2019-03-23T19:47:51.157Z,36.50
2019-03-23T19:50:23.016Z,35.47
2019-03-23T19:52:53.909Z,32.67
2019-03-23T19:55:24.843Z,34.17
2019-03-23T19:57:55.791Z,33.47
2019-03-23T20:00:26.810Z,30.03
2019-03-23T20:02:57.711Z,33.70
2019-03-23T20:05:28.656Z,33.57
2019-03-23T20:08:00.345Z,35.20
2019-03-23T20:10:31.328Z,38.13
2019-03-23T20:13:02.254Z,39.63
2019-03-23T20:15:33.168Z,32.53
2019-03-23T20:18:04.073Z,35.93
2019-03-23T20:20:35.134Z,30.63
2019-03-23T20:23:07.493Z,34.53
2019-03-23T20:25:39.790Z,31.47
2019-03-23T20:28:11.063Z,31.50
2019-03-23T20:30:41.999Z,35.87
2019-03-23T20:33:19.280Z,36.27
2019-03-23T20:35:46.571Z,38.37
2019-03-23T20:38:17.501Z,31.33
2019-03-23T20:40:48.438Z,28.70
2019-03-23T20:43:19.350Z,31.03
2019-03-23T20:45:50.280Z,29.50
2019-03-23T20:48:21.179Z,35.77
2019-03-23T20:50:52.953Z,35.83
2019-03-23T20:53:23.855Z,33.73
2019-03-23T20:55:54.791Z,36.13
2019-03-23T20:58:25.705Z,34.37
2019-03-23T21:00:56.646Z,31.27
2019-03-23T21:03:27.546Z,36.87
2019-03-23T21:05:59.375Z,35.13
2019-03-23T21:08:31.890Z,40.83
2019-03-23T21:11:02.817Z,33.00
2019-03-23T21:13:34.623Z,33.30
2019-03-23T21:16:05.935Z,36.80
2019-03-23T21:18:36.832Z,33.67
2019-03-23T21:21:08.698Z,34.60
2019-03-23T21:23:39.610Z,30.07
2019-03-23T21:26:10.536Z,30.90
2019-03-23T21:28:41.453Z,21.43
2019-03-23T21:31:12.388Z,28.67
2019-03-23T21:33:43.296Z,20.03
2019-03-23T21:36:15.466Z,22.57
2019-03-23T21:38:46.358Z,17.00
2019-03-23T21:41:18.159Z,17.67
2019-03-23T21:43:49.065Z,15.37
2019-03-23T21:46:19.992Z,11.97
2019-03-23T21:48:50.889Z,10.17
2019-03-23T21:51:22.923Z,5.33
2019-03-23T21:53:53.817Z,10.13
2019-03-23T21:56:24.738Z,8.20
2019-03-23T21:58:55.636Z,11.80
2019-03-23T22:01:26.580Z,13.47
2019-03-23T22:03:57.484Z,7.00
2019-03-23T22:06:31.743Z,11.47
2019-03-23T22:09:02.706Z,13.37
2019-03-23T22:11:33.626Z,9.10
2019-03-23T22:14:04.520Z,9.53
2019-03-23T22:16:35.438Z,10.43
2019-03-23T22:19:06.329Z,8.47
2019-03-23T22:21:37.272Z,8.13
2019-03-23T22:24:08.168Z,10.57
2019-03-23T22:26:39.104Z,10.17
2019-03-23T22:29:10.022Z,10.23
2019-03-23T22:31:40.951Z,8.97
2019-03-23T22:34:11.900Z,11.37
2019-03-23T22:36:46.059Z,11.03
2019-03-23T22:39:16.930Z,9.97
2019-03-23T22:41:47.851Z,9.63
2019-03-23T22:44:18.828Z,14.93
2019-03-23T22:46:52.747Z,16.57
2019-03-23T22:49:23.650Z,12.40
2019-03-23T22:51:54.598Z,11.40
2019-03-23T22:54:25.493Z,13.00
2019-03-23T22:56:56.430Z,11.43
2019-03-23T22:59:27.314Z,13.93
2019-03-23T23:01:58.612Z,14.70
2019-03-23T23:04:29.512Z,9.33
2019-03-23T23:07:02.175Z,13.73
2019-03-23T23:09:34.141Z,17.37
2019-03-23T23:12:05.357Z,13.40
2019-03-23T23:14:36.250Z,9.87
2019-03-23T23:17:07.189Z,14.80
2019-03-23T23:19:38.093Z,11.20
2019-03-23T23:22:09.028Z,10.40
2019-03-23T23:24:40.011Z,11.80
2019-03-23T23:27:11.021Z,10.77
2019-03-23T23:29:41.909Z,13.87
2019-03-23T23:32:12.837Z,13.50
2019-03-23T23:34:43.735Z,13.97
2019-03-23T23:37:14.692Z,11.63
2019-03-23T23:39:45.594Z,13.23
2019-03-23T23:42:17.015Z,14.70
2019-03-23T23:44:47.917Z,14.97
2019-03-23T23:47:21.561Z,11.70
2019-03-23T23:49:52.471Z,12.03
2019-03-23T23:52:24.293Z,13.77
2019-03-23T23:54:55.190Z,10.50
2019-03-23T23:57:26.108Z,11.57
2019-03-23T23:59:57.010Z,9.47
